sensor_id;sensor_type;location;lat;lon;timestamp;temperature;humidity
6822;DHT22;3449;48.728;8.968;2023-05-20T00:01:40;10.30;99.90
6822;DHT22;3449;48.728;8.968;2023-05-20T00:04:07;10.30;99.90
6822;DHT22;3449;48.728;8.968;2023-05-20T00:06:34;10.30;99.90
6822;DHT22;3449;48.728;8.968;2023-05-20T00:09:01;10.40;99.90
6822;DHT22;3449;48.728;8.968;2023-05-20T00:11:28;10.40;99.90
6822;DHT22;3449;48.728;8.968;2023-05-20T00:13:55;10.40;99.90
6822;DHT22;3449;48.728;8.968;2023-05-20T00:16:24;10.40;99.90
6822;DHT22;3449;48.728;8.968;2023-05-20T00:18:50;10.40;99.90
6822;DHT22;3449;48.728;8.968;2023-05-20T00:21:17;10.40;99.90
6822;DHT22;3449;48.728;8.968;2023-05-20T00:23:44;10.50;99.90
6822;DHT22;3449;48.728;8.968;2023-05-20T00:26:11;10.50;99.90
6822;DHT22;3449;48.728;8.968;2023-05-20T00:28:38;10.50;99.90
6822;DHT22;3449;48.728;8.968;2023-05-20T00:31:05;10.50;99.90
6822;DHT22;3449;48.728;8.968;2023-05-20T00:33:33;10.50;99.90
6822;DHT22;3449;48.728;8.968;2023-05-20T00:36:00;10.50;99.90
6822;DHT22;3449;48.728;8.968;2023-05-20T00:38:27;10.50;99.90
6822;DHT22;3449;48.728;8.968;2023-05-20T00:40:54;10.50;99.90
6822;DHT22;3449;48.728;8.968;2023-05-20T00:43:21;10.50;99.90
6822;DHT22;3449;48.728;8.968;2023-05-20T00:45:50;10.50;99.90
6822;DHT22;3449;48.728;8.968;2023-05-20T00:48:17;10.60;99.90
6822;DHT22;3449;48.728;8.968;2023-05-20T00:50:47;10.50;99.90
6822;DHT22;3449;48.728;8.968;2023-05-20T00:53:16;10.60;99.90
6822;DHT22;3449;48.728;8.968;2023-05-20T00:55:43;10.60;99.90
6822;DHT22;3449;48.728;8.968;2023-05-20T00:58:11;10.60;99.90
6822;DHT22;3449;48.728;8.968;2023-05-20T01:00:38;10.60;99.90
6822;DHT22;3449;48.728;8.968;2023-05-20T01:03:05;10.60;99.90
6822;DHT22;3449;48.728;8.968;2023-05-20T01:05:32;10.60;99.90
6822;DHT22;3449;48.728;8.968;2023-05-20T01:08:00;10.60;99.90
6822;DHT22;3449;48.728;8.968;2023-05-20T01:10:28;10.60;99.90
6822;DHT22;3449;48.728;8.968;2023-05-20T01:12:58;10.60;99.90
6822;DHT22;3449;48.728;8.968;2023-05-20T01:15:27;10.60;99.90
6822;DHT22;3449;48.728;8.968;2023-05-20T01:17:58;10.60;99.90
6822;DHT22;3449;48.728;8.968;2023-05-20T01:20:27;10.60;99.90
6822;DHT22;3449;48.728;8.968;2023-05-20T01:22:58;10.60;99.90
6822;DHT22;3449;48.728;8.968;2023-05-20T01:25:25;10.60;99.90
6822;DHT22;3449;48.728;8.968;2023-05-20T01:27:53;10.60;99.90
6822;DHT22;3449;48.728;8.968;2023-05-20T01:30:21;10.60;99.90
6822;DHT22;3449;48.728;8.968;2023-05-20T01:32:50;10.60;99.90
6822;DHT22;3449;48.728;8.968;2023-05-20T01:35:18;10.60;99.90
6822;DHT22;3449;48.728;8.968;2023-05-20T01:37:46;10.60;99.90
6822;DHT22;3449;48.728;8.968;2023-05-20T01:40:15;10.60;99.90
6822;DHT22;3449;48.728;8.968;2023-05-20T01:42:44;10.60;99.90
6822;DHT22;3449;48.728;8.968;2023-05-20T01:45:17;10.60;99.90
6822;DHT22;3449;48.728;8.968;2023-05-20T01:47:44;10.60;99.90
6822;DHT22;3449;48.728;8.968;2023-05-20T01:50:11;10.60;99.90
6822;DHT22;3449;48.728;8.968;2023-05-20T01:52:38;10.60;99.90
6822;DHT22;3449;48.728;8.968;2023-05-20T01:55:05;10.60;99.90
6822;DHT22;3449;48.728;8.968;2023-05-20T01:57:33;10.60;99.90
6822;DHT22;3449;48.728;8.968;2023-05-20T02:00:00;10.70;99.90
6822;DHT22;3449;48.728;8.968;2023-05-20T02:02:28;10.70;99.90
6822;DHT22;3449;48.728;8.968;2023-05-20T02:04:55;10.60;99.90
6822;DHT22;3449;48.728;8.968;2023-05-20T02:07:22;10.60;99.90
6822;DHT22;3449;48.728;8.968;2023-05-20T02:09:48;10.60;99.90
6822;DHT22;3449;48.728;8.968;2023-05-20T02:12:15;10.60;99.90
6822;DHT22;3449;48.728;8.968;2023-05-20T02:14:45;10.60;99.90
6822;DHT22;3449;48.728;8.968;2023-05-20T02:17:12;10.50;99.90
6822;DHT22;3449;48.728;8.968;2023-05-20T02:19:41;10.50;99.90
6822;DHT22;3449;48.728;8.968;2023-05-20T02:22:08;10.50;99.90
6822;DHT22;3449;48.728;8.968;2023-05-20T02:24:34;10.50;99.90
6822;DHT22;3449;48.728;8.968;2023-05-20T02:27:01;10.50;99.90
6822;DHT22;3449;48.728;8.968;2023-05-20T02:29:29;10.40;99.90
6822;DHT22;3449;48.728;8.968;2023-05-20T02:31:57;10.40;99.90
6822;DHT22;3449;48.728;8.968;2023-05-20T02:34:24;10.40;99.90
6822;DHT22;3449;48.728;8.968;2023-05-20T02:36:51;10.40;99.90
6822;DHT22;3449;48.728;8.968;2023-05-20T02:39:19;10.40;99.90
6822;DHT22;3449;48.728;8.968;2023-05-20T02:41:45;10.40;99.90
6822;DHT22;3449;48.728;8.968;2023-05-20T02:44:12;10.40;99.90
6822;DHT22;3449;48.728;8.968;2023-05-20T02:46:39;10.40;99.90
6822;DHT22;3449;48.728;8.968;2023-05-20T02:49:07;10.40;99.90
6822;DHT22;3449;48.728;8.968;2023-05-20T02:51:35;10.40;99.90
6822;DHT22;3449;48.728;8.968;2023-05-20T02:54:02;10.40;99.90
6822;DHT22;3449;48.728;8.968;2023-05-20T02:56:28;10.40;99.90
6822;DHT22;3449;48.728;8.968;2023-05-20T02:58:56;10.40;99.90
6822;DHT22;3449;48.728;8.968;2023-05-20T03:01:24;10.40;99.90
6822;DHT22;3449;48.728;8.968;2023-05-20T03:03:51;10.40;99.90
6822;DHT22;3449;48.728;8.968;2023-05-20T03:06:19;10.40;99.90
6822;DHT22;3449;48.728;8.968;2023-05-20T03:08:46;10.40;99.90
6822;DHT22;3449;48.728;8.968;2023-05-20T03:11:13;10.40;99.90
6822;DHT22;3449;48.728;8.968;2023-05-20T03:13:40;10.40;99.90
6822;DHT22;3449;48.728;8.968;2023-05-20T03:16:07;10.40;99.90
6822;DHT22;3449;48.728;8.968;2023-05-20T03:18:34;10.50;99.90
6822;DHT22;3449;48.728;8.968;2023-05-20T03:21:01;10.50;99.90
6822;DHT22;3449;48.728;8.968;2023-05-20T03:23:30;10.50;99.90
6822;DHT22;3449;48.728;8.968;2023-05-20T03:25:57;10.50;99.90
6822;DHT22;3449;48.728;8.968;2023-05-20T03:28:23;10.50;99.90
6822;DHT22;3449;48.728;8.968;2023-05-20T03:30:51;10.50;99.90
6822;DHT22;3449;48.728;8.968;2023-05-20T03:33:17;10.60;99.90
6822;DHT22;3449;48.728;8.968;2023-05-20T03:35:45;10.60;99.90
6822;DHT22;3449;48.728;8.968;2023-05-20T03:38:11;10.60;99.90
6822;DHT22;3449;48.728;8.968;2023-05-20T03:40:40;10.50;99.90
6822;DHT22;3449;48.728;8.968;2023-05-20T03:43:07;10.50;99.90
6822;DHT22;3449;48.728;8.968;2023-05-20T03:45:33;10.50;99.90
6822;DHT22;3449;48.728;8.968;2023-05-20T03:48:00;10.50;99.90
6822;DHT22;3449;48.728;8.968;2023-05-20T03:50:28;10.50;99.90
6822;DHT22;3449;48.728;8.968;2023-05-20T03:52:56;10.50;99.90
6822;DHT22;3449;48.728;8.968;2023-05-20T03:55:23;10.50;99.90
6822;DHT22;3449;48.728;8.968;2023-05-20T03:57:51;10.50;99.90
6822;DHT22;3449;48.728;8.968;2023-05-20T04:00:18;10.50;99.90
6822;DHT22;3449;48.728;8.968;2023-05-20T04:02:45;10.50;99.90
6822;DHT22;3449;48.728;8.968;2023-05-20T04:05:12;10.50;99.90
6822;DHT22;3449;48.728;8.968;2023-05-20T04:07:39;10.50;99.90
6822;DHT22;3449;48.728;8.968;2023-05-20T04:10:07;10.50;99.90
6822;DHT22;3449;48.728;8.968;2023-05-20T04:12:34;10.40;99.90
6822;DHT22;3449;48.728;8.968;2023-05-20T04:15:04;10.40;99.90
6822;DHT22;3449;48.728;8.968;2023-05-20T04:17:31;10.40;99.90
6822;DHT22;3449;48.728;8.968;2023-05-20T04:19:58;10.40;99.90
6822;DHT22;3449;48.728;8.968;2023-05-20T04:22:25;10.40;99.90
6822;DHT22;3449;48.728;8.968;2023-05-20T04:24:52;10.40;99.90
6822;DHT22;3449;48.728;8.968;2023-05-20T04:27:19;10.50;99.90
6822;DHT22;3449;48.728;8.968;2023-05-20T04:29:46;10.50;99.90
6822;DHT22;3449;48.728;8.968;2023-05-20T04:32:18;10.50;99.90
6822;DHT22;3449;48.728;8.968;2023-05-20T04:34:45;10.50;99.90
6822;DHT22;3449;48.728;8.968;2023-05-20T04:37:13;10.50;99.90
6822;DHT22;3449;48.728;8.968;2023-05-20T04:39:40;10.50;99.90
6822;DHT22;3449;48.728;8.968;2023-05-20T04:42:08;10.50;99.90
6822;DHT22;3449;48.728;8.968;2023-05-20T04:44:35;10.60;99.90
6822;DHT22;3449;48.728;8.968;2023-05-20T04:47:02;10.60;99.90
6822;DHT22;3449;48.728;8.968;2023-05-20T04:49:30;10.60;99.90
6822;DHT22;3449;48.728;8.968;2023-05-20T04:51:57;10.70;99.90
6822;DHT22;3449;48.728;8.968;2023-05-20T04:54:26;10.70;99.90
6822;DHT22;3449;48.728;8.968;2023-05-20T04:56:53;10.80;99.90
6822;DHT22;3449;48.728;8.968;2023-05-20T04:59:20;10.90;99.90
6822;DHT22;3449;48.728;8.968;2023-05-20T05:01:46;10.90;99.90
6822;DHT22;3449;48.728;8.968;2023-05-20T05:04:13;10.90;99.90
6822;DHT22;3449;48.728;8.968;2023-05-20T05:06:41;11.00;99.90
6822;DHT22;3449;48.728;8.968;2023-05-20T05:09:08;11.10;99.90
6822;DHT22;3449;48.728;8.968;2023-05-20T05:11:35;11.10;99.90
6822;DHT22;3449;48.728;8.968;2023-05-20T05:14:02;11.10;99.90
6822;DHT22;3449;48.728;8.968;2023-05-20T05:16:29;11.10;99.90
6822;DHT22;3449;48.728;8.968;2023-05-20T05:18:56;11.20;99.90
6822;DHT22;3449;48.728;8.968;2023-05-20T05:21:22;11.30;99.90
6822;DHT22;3449;48.728;8.968;2023-05-20T05:23:51;11.30;99.90
6822;DHT22;3449;48.728;8.968;2023-05-20T05:26:18;11.40;99.90
6822;DHT22;3449;48.728;8.968;2023-05-20T05:28:45;11.40;99.90
6822;DHT22;3449;48.728;8.968;2023-05-20T05:31:12;11.40;99.90
6822;DHT22;3449;48.728;8.968;2023-05-20T05:33:39;11.50;99.90
6822;DHT22;3449;48.728;8.968;2023-05-20T05:36:06;11.50;99.90
6822;DHT22;3449;48.728;8.968;2023-05-20T05:38:37;11.60;99.90
6822;DHT22;3449;48.728;8.968;2023-05-20T05:41:06;11.70;99.90
6822;DHT22;3449;48.728;8.968;2023-05-20T05:43:34;11.70;99.90
6822;DHT22;3449;48.728;8.968;2023-05-20T05:46:01;11.80;99.90
6822;DHT22;3449;48.728;8.968;2023-05-20T05:48:27;11.90;99.90
6822;DHT22;3449;48.728;8.968;2023-05-20T05:50:54;11.90;99.90
6822;DHT22;3449;48.728;8.968;2023-05-20T05:53:21;12.10;99.90
6822;DHT22;3449;48.728;8.968;2023-05-20T05:55:48;12.20;99.90
6822;DHT22;3449;48.728;8.968;2023-05-20T05:58:16;12.20;99.90
6822;DHT22;3449;48.728;8.968;2023-05-20T06:00:43;12.30;99.90
6822;DHT22;3449;48.728;8.968;2023-05-20T06:03:10;12.40;99.90
6822;DHT22;3449;48.728;8.968;2023-05-20T06:05:37;12.50;99.90
6822;DHT22;3449;48.728;8.968;2023-05-20T06:08:04;12.70;99.90
6822;DHT22;3449;48.728;8.968;2023-05-20T06:10:31;12.80;99.90
6822;DHT22;3449;48.728;8.968;2023-05-20T06:12:58;12.90;99.90
6822;DHT22;3449;48.728;8.968;2023-05-20T06:15:26;12.90;99.90
6822;DHT22;3449;48.728;8.968;2023-05-20T06:17:53;13.00;99.90
6822;DHT22;3449;48.728;8.968;2023-05-20T06:20:20;13.10;99.90
6822;DHT22;3449;48.728;8.968;2023-05-20T06:22:47;13.10;99.90
6822;DHT22;3449;48.728;8.968;2023-05-20T06:25:14;13.20;99.90
6822;DHT22;3449;48.728;8.968;2023-05-20T06:27:40;13.20;99.90
6822;DHT22;3449;48.728;8.968;2023-05-20T06:30:08;13.20;99.90
6822;DHT22;3449;48.728;8.968;2023-05-20T06:32:36;13.30;99.90
6822;DHT22;3449;48.728;8.968;2023-05-20T06:35:04;13.40;99.90
6822;DHT22;3449;48.728;8.968;2023-05-20T06:37:31;13.40;99.90
6822;DHT22;3449;48.728;8.968;2023-05-20T06:39:57;13.30;99.90
6822;DHT22;3449;48.728;8.968;2023-05-20T06:42:24;13.30;99.90
6822;DHT22;3449;48.728;8.968;2023-05-20T06:44:51;13.30;99.90
6822;DHT22;3449;48.728;8.968;2023-05-20T06:47:18;13.40;99.90
6822;DHT22;3449;48.728;8.968;2023-05-20T06:49:47;13.40;99.90
6822;DHT22;3449;48.728;8.968;2023-05-20T06:52:13;13.50;99.90
6822;DHT22;3449;48.728;8.968;2023-05-20T06:54:40;13.60;99.90
6822;DHT22;3449;48.728;8.968;2023-05-20T06:57:08;13.70;99.90
6822;DHT22;3449;48.728;8.968;2023-05-20T06:59:35;13.70;99.90
6822;DHT22;3449;48.728;8.968;2023-05-20T07:02:02;13.90;99.90
6822;DHT22;3449;48.728;8.968;2023-05-20T07:04:29;13.90;99.90
6822;DHT22;3449;48.728;8.968;2023-05-20T07:06:57;14.00;99.90
6822;DHT22;3449;48.728;8.968;2023-05-20T07:09:24;14.20;99.90
6822;DHT22;3449;48.728;8.968;2023-05-20T07:11:51;14.30;99.90
6822;DHT22;3449;48.728;8.968;2023-05-20T07:14:18;14.40;99.90
6822;DHT22;3449;48.728;8.968;2023-05-20T07:16:45;14.40;99.90
6822;DHT22;3449;48.728;8.968;2023-05-20T07:19:12;14.40;99.90
6822;DHT22;3449;48.728;8.968;2023-05-20T07:21:39;14.40;99.90
6822;DHT22;3449;48.728;8.968;2023-05-20T07:24:08;14.30;99.90
6822;DHT22;3449;48.728;8.968;2023-05-20T07:26:34;14.40;99.90
6822;DHT22;3449;48.728;8.968;2023-05-20T07:29:02;14.40;99.90
6822;DHT22;3449;48.728;8.968;2023-05-20T07:31:29;14.50;99.90
6822;DHT22;3449;48.728;8.968;2023-05-20T07:33:56;14.50;99.90
6822;DHT22;3449;48.728;8.968;2023-05-20T07:36:25;14.60;99.90
6822;DHT22;3449;48.728;8.968;2023-05-20T07:38:52;14.80;99.90
6822;DHT22;3449;48.728;8.968;2023-05-20T07:41:20;15.00;99.90
6822;DHT22;3449;48.728;8.968;2023-05-20T07:43:47;15.00;99.90
6822;DHT22;3449;48.728;8.968;2023-05-20T07:46:15;15.10;99.90
6822;DHT22;3449;48.728;8.968;2023-05-20T07:48:42;15.30;99.90
6822;DHT22;3449;48.728;8.968;2023-05-20T07:51:09;15.20;99.90
6822;DHT22;3449;48.728;8.968;2023-05-20T07:53:36;15.10;99.90
6822;DHT22;3449;48.728;8.968;2023-05-20T07:56:04;15.20;99.90
6822;DHT22;3449;48.728;8.968;2023-05-20T07:58:32;15.20;99.90
6822;DHT22;3449;48.728;8.968;2023-05-20T08:00:59;15.20;99.90
6822;DHT22;3449;48.728;8.968;2023-05-20T08:03:26;15.20;99.90
6822;DHT22;3449;48.728;8.968;2023-05-20T08:05:53;15.10;99.90
6822;DHT22;3449;48.728;8.968;2023-05-20T08:08:20;15.10;99.90
6822;DHT22;3449;48.728;8.968;2023-05-20T08:10:47;15.20;99.90
6822;DHT22;3449;48.728;8.968;2023-05-20T08:13:13;15.40;99.90
6822;DHT22;3449;48.728;8.968;2023-05-20T08:15:42;15.60;99.90
6822;DHT22;3449;48.728;8.968;2023-05-20T08:18:09;15.60;99.90
6822;DHT22;3449;48.728;8.968;2023-05-20T08:20:35;15.70;99.90
6822;DHT22;3449;48.728;8.968;2023-05-20T08:23:03;15.70;99.90
6822;DHT22;3449;48.728;8.968;2023-05-20T08:25:30;15.80;99.90
6822;DHT22;3449;48.728;8.968;2023-05-20T08:27:57;15.90;99.90
6822;DHT22;3449;48.728;8.968;2023-05-20T08:30:28;15.80;99.90
6822;DHT22;3449;48.728;8.968;2023-05-20T08:32:56;15.70;99.90
6822;DHT22;3449;48.728;8.968;2023-05-20T08:35:23;15.70;99.90
6822;DHT22;3449;48.728;8.968;2023-05-20T08:37:50;15.60;99.90
6822;DHT22;3449;48.728;8.968;2023-05-20T08:40:18;15.50;99.90
6822;DHT22;3449;48.728;8.968;2023-05-20T08:42:47;15.50;99.90
6822;DHT22;3449;48.728;8.968;2023-05-20T08:45:18;15.70;99.90
6822;DHT22;3449;48.728;8.968;2023-05-20T08:47:45;15.50;99.90
6822;DHT22;3449;48.728;8.968;2023-05-20T08:50:13;15.50;99.90
6822;DHT22;3449;48.728;8.968;2023-05-20T08:52:42;15.60;99.90
6822;DHT22;3449;48.728;8.968;2023-05-20T08:55:14;15.70;99.90
6822;DHT22;3449;48.728;8.968;2023-05-20T08:57:41;15.80;99.90
6822;DHT22;3449;48.728;8.968;2023-05-20T09:00:12;15.90;99.90
6822;DHT22;3449;48.728;8.968;2023-05-20T09:02:41;16.20;99.90
6822;DHT22;3449;48.728;8.968;2023-05-20T09:05:10;16.30;99.90
6822;DHT22;3449;48.728;8.968;2023-05-20T09:07:38;16.60;99.90
6822;DHT22;3449;48.728;8.968;2023-05-20T09:10:07;17.10;99.90
6822;DHT22;3449;48.728;8.968;2023-05-20T09:12:35;17.40;99.90
6822;DHT22;3449;48.728;8.968;2023-05-20T09:15:02;17.30;99.90
6822;DHT22;3449;48.728;8.968;2023-05-20T09:17:29;17.40;99.90
6822;DHT22;3449;48.728;8.968;2023-05-20T09:19:56;17.30;99.90
6822;DHT22;3449;48.728;8.968;2023-05-20T09:22:23;17.20;99.90
6822;DHT22;3449;48.728;8.968;2023-05-20T09:24:52;17.20;99.90
6822;DHT22;3449;48.728;8.968;2023-05-20T09:27:19;17.50;99.90
6822;DHT22;3449;48.728;8.968;2023-05-20T09:29:47;17.90;99.90
6822;DHT22;3449;48.728;8.968;2023-05-20T09:32:14;18.50;99.90
6822;DHT22;3449;48.728;8.968;2023-05-20T09:34:41;18.40;99.90
6822;DHT22;3449;48.728;8.968;2023-05-20T09:37:10;18.70;99.90
6822;DHT22;3449;48.728;8.968;2023-05-20T09:39:43;18.70;99.90
6822;DHT22;3449;48.728;8.968;2023-05-20T09:42:19;18.70;99.90
6822;DHT22;3449;48.728;8.968;2023-05-20T09:44:47;18.60;99.90
6822;DHT22;3449;48.728;8.968;2023-05-20T09:47:16;18.30;99.90
6822;DHT22;3449;48.728;8.968;2023-05-20T09:49:45;18.20;99.90
6822;DHT22;3449;48.728;8.968;2023-05-20T09:52:13;18.30;99.90
6822;DHT22;3449;48.728;8.968;2023-05-20T09:54:42;18.30;99.90
6822;DHT22;3449;48.728;8.968;2023-05-20T09:57:09;18.20;99.90
6822;DHT22;3449;48.728;8.968;2023-05-20T09:59:39;18.20;99.90
6822;DHT22;3449;48.728;8.968;2023-05-20T10:02:06;18.10;99.90
6822;DHT22;3449;48.728;8.968;2023-05-20T10:04:35;18.10;99.90
6822;DHT22;3449;48.728;8.968;2023-05-20T10:07:28;18.30;99.90
6822;DHT22;3449;48.728;8.968;2023-05-20T10:10:06;18.50;99.90
6822;DHT22;3449;48.728;8.968;2023-05-20T10:12:43;18.60;99.90
6822;DHT22;3449;48.728;8.968;2023-05-20T10:15:17;18.40;99.90
6822;DHT22;3449;48.728;8.968;2023-05-20T10:17:57;18.70;99.90
6822;DHT22;3449;48.728;8.968;2023-05-20T10:20:26;19.30;99.90
6822;DHT22;3449;48.728;8.968;2023-05-20T10:22:56;19.80;99.90
6822;DHT22;3449;48.728;8.968;2023-05-20T10:25:24;20.30;99.90
6822;DHT22;3449;48.728;8.968;2023-05-20T10:27:51;20.50;99.90
6822;DHT22;3449;48.728;8.968;2023-05-20T10:30:20;20.20;99.90
6822;DHT22;3449;48.728;8.968;2023-05-20T10:32:51;19.80;99.90
6822;DHT22;3449;48.728;8.968;2023-05-20T10:35:21;19.80;99.90
6822;DHT22;3449;48.728;8.968;2023-05-20T10:37:51;19.90;99.90
6822;DHT22;3449;48.728;8.968;2023-05-20T10:40:19;20.50;99.90
6822;DHT22;3449;48.728;8.968;2023-05-20T10:42:46;20.30;99.90
6822;DHT22;3449;48.728;8.968;2023-05-20T10:45:26;20.10;99.90
6822;DHT22;3449;48.728;8.968;2023-05-20T10:47:53;19.90;99.90
6822;DHT22;3449;48.728;8.968;2023-05-20T10:50:32;19.80;99.90
6822;DHT22;3449;48.728;8.968;2023-05-20T10:53:03;19.50;99.90
6822;DHT22;3449;48.728;8.968;2023-05-20T10:55:35;19.30;99.90
6822;DHT22;3449;48.728;8.968;2023-05-20T10:58:03;19.10;99.90
6822;DHT22;3449;48.728;8.968;2023-05-20T11:00:33;19.20;99.90
6822;DHT22;3449;48.728;8.968;2023-05-20T11:03:00;19.40;99.90
6822;DHT22;3449;48.728;8.968;2023-05-20T11:05:29;19.70;99.90
6822;DHT22;3449;48.728;8.968;2023-05-20T11:08:00;19.80;99.90
6822;DHT22;3449;48.728;8.968;2023-05-20T11:10:28;19.90;99.90
6822;DHT22;3449;48.728;8.968;2023-05-20T11:12:55;20.10;99.90
6822;DHT22;3449;48.728;8.968;2023-05-20T11:15:22;20.20;99.90
6822;DHT22;3449;48.728;8.968;2023-05-20T11:17:53;20.60;99.90
6822;DHT22;3449;48.728;8.968;2023-05-20T11:20:20;21.00;99.90
6822;DHT22;3449;48.728;8.968;2023-05-20T11:22:48;20.70;99.90
6822;DHT22;3449;48.728;8.968;2023-05-20T11:25:15;20.40;99.90
6822;DHT22;3449;48.728;8.968;2023-05-20T11:27:43;20.40;99.90
6822;DHT22;3449;48.728;8.968;2023-05-20T11:30:11;20.50;99.90
6822;DHT22;3449;48.728;8.968;2023-05-20T11:32:41;20.40;99.90
6822;DHT22;3449;48.728;8.968;2023-05-20T11:35:20;20.30;99.90
6822;DHT22;3449;48.728;8.968;2023-05-20T11:37:53;20.40;99.90
6822;DHT22;3449;48.728;8.968;2023-05-20T11:40:23;20.50;99.90
6822;DHT22;3449;48.728;8.968;2023-05-20T11:42:52;20.60;99.90
6822;DHT22;3449;48.728;8.968;2023-05-20T11:45:19;20.60;99.90
6822;DHT22;3449;48.728;8.968;2023-05-20T11:47:57;20.40;99.90
6822;DHT22;3449;48.728;8.968;2023-05-20T11:50:25;20.40;99.90
6822;DHT22;3449;48.728;8.968;2023-05-20T11:52:56;20.40;99.90
6822;DHT22;3449;48.728;8.968;2023-05-20T11:55:24;20.20;99.90
6822;DHT22;3449;48.728;8.968;2023-05-20T11:57:51;20.20;99.90
6822;DHT22;3449;48.728;8.968;2023-05-20T12:00:18;20.50;99.90
6822;DHT22;3449;48.728;8.968;2023-05-20T12:02:46;20.50;99.90
6822;DHT22;3449;48.728;8.968;2023-05-20T12:05:13;20.90;99.90
6822;DHT22;3449;48.728;8.968;2023-05-20T12:07:42;21.30;99.90
6822;DHT22;3449;48.728;8.968;2023-05-20T12:10:09;21.00;99.90
6822;DHT22;3449;48.728;8.968;2023-05-20T12:12:38;21.00;99.90
6822;DHT22;3449;48.728;8.968;2023-05-20T12:15:05;21.30;99.90
6822;DHT22;3449;48.728;8.968;2023-05-20T12:17:45;21.20;99.90
6822;DHT22;3449;48.728;8.968;2023-05-20T12:20:13;21.50;99.90
6822;DHT22;3449;48.728;8.968;2023-05-20T12:22:42;21.90;99.90
6822;DHT22;3449;48.728;8.968;2023-05-20T12:25:11;22.40;99.90
6822;DHT22;3449;48.728;8.968;2023-05-20T12:27:40;22.70;99.90
6822;DHT22;3449;48.728;8.968;2023-05-20T12:30:08;23.20;99.90
6822;DHT22;3449;48.728;8.968;2023-05-20T12:32:36;22.80;99.90
6822;DHT22;3449;48.728;8.968;2023-05-20T12:35:03;22.80;99.90
6822;DHT22;3449;48.728;8.968;2023-05-20T12:37:30;22.50;99.90
6822;DHT22;3449;48.728;8.968;2023-05-20T12:39:58;22.10;99.90
6822;DHT22;3449;48.728;8.968;2023-05-20T12:42:25;22.00;99.90
6822;DHT22;3449;48.728;8.968;2023-05-20T12:44:52;22.10;99.90
6822;DHT22;3449;48.728;8.968;2023-05-20T12:47:19;22.60;99.90
6822;DHT22;3449;48.728;8.968;2023-05-20T12:49:46;23.40;99.90
6822;DHT22;3449;48.728;8.968;2023-05-20T12:52:14;23.60;99.90
6822;DHT22;3449;48.728;8.968;2023-05-20T12:54:40;23.60;99.90
6822;DHT22;3449;48.728;8.968;2023-05-20T12:57:09;23.30;99.90
6822;DHT22;3449;48.728;8.968;2023-05-20T12:59:36;23.40;99.90
6822;DHT22;3449;48.728;8.968;2023-05-20T13:02:03;23.40;99.90
6822;DHT22;3449;48.728;8.968;2023-05-20T13:04:30;23.20;99.90
6822;DHT22;3449;48.728;8.968;2023-05-20T13:06:57;23.10;99.90
6822;DHT22;3449;48.728;8.968;2023-05-20T13:09:24;23.00;99.90
6822;DHT22;3449;48.728;8.968;2023-05-20T13:11:51;23.20;99.90
6822;DHT22;3449;48.728;8.968;2023-05-20T13:14:19;23.10;99.90
6822;DHT22;3449;48.728;8.968;2023-05-20T13:16:48;23.20;99.90
6822;DHT22;3449;48.728;8.968;2023-05-20T13:19:18;23.40;99.90
6822;DHT22;3449;48.728;8.968;2023-05-20T13:21:46;23.50;99.90
6822;DHT22;3449;48.728;8.968;2023-05-20T13:24:13;23.20;99.90
6822;DHT22;3449;48.728;8.968;2023-05-20T13:26:40;23.10;99.90
6822;DHT22;3449;48.728;8.968;2023-05-20T13:29:07;23.00;99.90
6822;DHT22;3449;48.728;8.968;2023-05-20T13:31:36;23.00;99.90
6822;DHT22;3449;48.728;8.968;2023-05-20T13:34:02;22.70;99.90
6822;DHT22;3449;48.728;8.968;2023-05-20T13:36:30;22.60;99.90
6822;DHT22;3449;48.728;8.968;2023-05-20T13:38:56;22.80;99.90
6822;DHT22;3449;48.728;8.968;2023-05-20T13:41:24;22.90;99.90
6822;DHT22;3449;48.728;8.968;2023-05-20T13:43:51;23.00;99.90
6822;DHT22;3449;48.728;8.968;2023-05-20T13:46:18;23.00;99.90
6822;DHT22;3449;48.728;8.968;2023-05-20T13:48:46;22.80;99.90
6822;DHT22;3449;48.728;8.968;2023-05-20T13:51:13;22.70;99.90
6822;DHT22;3449;48.728;8.968;2023-05-20T13:53:40;23.00;99.90
6822;DHT22;3449;48.728;8.968;2023-05-20T13:56:07;23.00;99.90
6822;DHT22;3449;48.728;8.968;2023-05-20T13:58:34;23.30;99.90
6822;DHT22;3449;48.728;8.968;2023-05-20T14:01:01;23.40;99.90
6822;DHT22;3449;48.728;8.968;2023-05-20T14:03:29;23.10;99.90
6822;DHT22;3449;48.728;8.968;2023-05-20T14:05:58;23.10;99.90
6822;DHT22;3449;48.728;8.968;2023-05-20T14:08:25;22.90;99.90
6822;DHT22;3449;48.728;8.968;2023-05-20T14:10:52;23.00;99.90
6822;DHT22;3449;48.728;8.968;2023-05-20T14:13:20;23.10;99.90
6822;DHT22;3449;48.728;8.968;2023-05-20T14:15:47;23.10;99.90
6822;DHT22;3449;48.728;8.968;2023-05-20T14:18:15;23.10;99.90
6822;DHT22;3449;48.728;8.968;2023-05-20T14:20:42;23.30;99.90
6822;DHT22;3449;48.728;8.968;2023-05-20T14:23:10;23.60;99.90
6822;DHT22;3449;48.728;8.968;2023-05-20T14:25:37;23.30;99.90
6822;DHT22;3449;48.728;8.968;2023-05-20T14:28:05;23.30;99.90
6822;DHT22;3449;48.728;8.968;2023-05-20T14:30:32;23.10;99.90
6822;DHT22;3449;48.728;8.968;2023-05-20T14:32:58;23.10;99.90
6822;DHT22;3449;48.728;8.968;2023-05-20T14:35:25;23.20;99.90
6822;DHT22;3449;48.728;8.968;2023-05-20T14:37:52;23.40;99.90
6822;DHT22;3449;48.728;8.968;2023-05-20T14:40:20;23.70;99.90
6822;DHT22;3449;48.728;8.968;2023-05-20T14:42:52;23.80;99.90
6822;DHT22;3449;48.728;8.968;2023-05-20T14:45:19;23.80;99.90
6822;DHT22;3449;48.728;8.968;2023-05-20T14:47:46;23.50;99.90
6822;DHT22;3449;48.728;8.968;2023-05-20T14:50:13;23.20;99.90
6822;DHT22;3449;48.728;8.968;2023-05-20T14:52:40;22.80;99.90
6822;DHT22;3449;48.728;8.968;2023-05-20T14:55:07;22.40;99.90
6822;DHT22;3449;48.728;8.968;2023-05-20T14:57:35;22.40;99.90
6822;DHT22;3449;48.728;8.968;2023-05-20T15:00:09;22.30;99.90
6822;DHT22;3449;48.728;8.968;2023-05-20T15:02:36;22.30;99.90
6822;DHT22;3449;48.728;8.968;2023-05-20T15:05:03;22.50;99.90
6822;DHT22;3449;48.728;8.968;2023-05-20T15:07:30;22.70;99.90
6822;DHT22;3449;48.728;8.968;2023-05-20T15:09:57;22.60;99.90
6822;DHT22;3449;48.728;8.968;2023-05-20T15:12:24;22.60;99.90
6822;DHT22;3449;48.728;8.968;2023-05-20T15:14:52;22.60;99.90
6822;DHT22;3449;48.728;8.968;2023-05-20T15:17:19;22.40;99.90
6822;DHT22;3449;48.728;8.968;2023-05-20T15:19:46;22.30;99.90
6822;DHT22;3449;48.728;8.968;2023-05-20T15:22:13;22.40;99.90
6822;DHT22;3449;48.728;8.968;2023-05-20T15:24:40;22.70;99.90
6822;DHT22;3449;48.728;8.968;2023-05-20T15:27:06;22.90;99.90
6822;DHT22;3449;48.728;8.968;2023-05-20T15:29:33;23.30;99.90
6822;DHT22;3449;48.728;8.968;2023-05-20T15:32:02;23.20;99.90
6822;DHT22;3449;48.728;8.968;2023-05-20T15:34:29;23.50;99.90
6822;DHT22;3449;48.728;8.968;2023-05-20T15:36:55;23.50;99.90
6822;DHT22;3449;48.728;8.968;2023-05-20T15:39:22;23.80;99.90
6822;DHT22;3449;48.728;8.968;2023-05-20T15:41:50;24.00;99.90
6822;DHT22;3449;48.728;8.968;2023-05-20T15:44:18;23.90;99.90
6822;DHT22;3449;48.728;8.968;2023-05-20T15:46:45;23.80;99.90
6822;DHT22;3449;48.728;8.968;2023-05-20T15:49:13;23.60;99.90
6822;DHT22;3449;48.728;8.968;2023-05-20T15:51:40;23.60;99.90
6822;DHT22;3449;48.728;8.968;2023-05-20T15:54:07;23.60;99.90
6822;DHT22;3449;48.728;8.968;2023-05-20T15:56:34;23.20;99.90
6822;DHT22;3449;48.728;8.968;2023-05-20T15:59:01;23.10;99.90
6822;DHT22;3449;48.728;8.968;2023-05-20T16:01:28;22.80;99.90
6822;DHT22;3449;48.728;8.968;2023-05-20T16:03:55;22.50;99.90
6822;DHT22;3449;48.728;8.968;2023-05-20T16:06:23;22.50;99.90